createdAt,value
2018-07-24T00:00:46.289Z,99.90
2018-07-24T00:03:14.717Z,99.90
2018-07-24T00:05:43.228Z,99.90
2018-07-24T00:08:11.660Z,99.90
2018-07-24T00:10:40.093Z,99.90
2018-07-24T00:13:08.588Z,99.90
2018-07-24T00:15:37.017Z,99.90
2018-07-24T00:20:33.644Z,99.90
2018-07-24T00:23:02.121Z,99.90
2018-07-24T00:25:30.565Z,99.90
2018-07-24T00:27:59.021Z,99.90
2018-07-24T00:30:27.448Z,99.90
2018-07-24T00:32:55.904Z,99.90
2018-07-24T00:35:24.342Z,99.90
2018-07-24T00:37:52.776Z,99.90
2018-07-24T00:40:21.241Z,99.90
2018-07-24T00:42:49.712Z,99.90
2018-07-24T00:45:19.297Z,99.90
2018-07-24T00:47:48.034Z,99.90
2018-07-24T00:50:16.493Z,99.90
2018-07-24T00:52:44.991Z,99.90
2018-07-24T00:55:13.615Z,99.90
2018-07-24T00:57:42.095Z,99.90
2018-07-24T01:00:11.042Z,99.90
2018-07-24T01:02:39.595Z,99.90
2018-07-24T01:05:08.064Z,99.90
2018-07-24T01:07:38.934Z,99.90
2018-07-24T01:10:08.962Z,99.90
2018-07-24T01:12:37.420Z,99.90
2018-07-24T01:15:06.358Z,99.90
2018-07-24T01:20:03.232Z,99.90
2018-07-24T01:22:32.211Z,99.90
2018-07-24T01:27:28.981Z,99.90
2018-07-24T01:29:57.447Z,99.90
2018-07-24T01:32:25.957Z,99.90
2018-07-24T01:34:54.396Z,99.90
2018-07-24T01:37:23.553Z,99.90
2018-07-24T01:39:52.093Z,99.90
2018-07-24T01:44:48.715Z,99.90
2018-07-24T01:47:17.293Z,99.90
2018-07-24T01:49:45.755Z,99.90
2018-07-24T01:52:14.884Z,99.90
2018-07-24T01:54:43.324Z,99.90
2018-07-24T01:57:12.058Z,99.90
2018-07-24T01:59:40.646Z,99.90
2018-07-24T02:02:09.153Z,99.90
2018-07-24T02:04:37.718Z,99.90
2018-07-24T02:07:06.193Z,99.90
2018-07-24T02:09:34.625Z,99.90
2018-07-24T02:12:03.115Z,99.90
2018-07-24T02:14:31.596Z,99.90
2018-07-24T02:17:00.041Z,99.90
2018-07-24T02:19:28.495Z,99.90
2018-07-24T02:21:57.022Z,99.90
2018-07-24T02:24:25.494Z,99.90
2018-07-24T02:26:53.956Z,99.90
2018-07-24T02:29:22.657Z,99.90
2018-07-24T02:31:51.186Z,99.90
2018-07-24T02:36:47.768Z,99.90
2018-07-24T02:39:16.209Z,99.90
2018-07-24T02:41:44.739Z,99.90
2018-07-24T02:44:13.196Z,99.90
2018-07-24T02:46:41.785Z,99.90
2018-07-24T02:49:10.728Z,99.90
2018-07-24T02:51:39.854Z,99.90
2018-07-24T02:54:08.333Z,99.90
2018-07-24T02:56:36.815Z,99.90
2018-07-24T02:59:05.620Z,99.90
2018-07-24T03:01:34.085Z,99.90
2018-07-24T03:04:02.541Z,99.90
2018-07-24T03:08:59.180Z,99.90
2018-07-24T03:11:27.657Z,99.90
2018-07-24T03:13:56.148Z,99.90
2018-07-24T03:16:24.665Z,99.90
2018-07-24T03:18:53.061Z,99.90
2018-07-24T03:21:21.525Z,99.90
2018-07-24T03:23:50.010Z,99.90
2018-07-24T03:26:18.472Z,99.90
2018-07-24T03:28:46.955Z,99.90
2018-07-24T03:31:15.400Z,99.90
2018-07-24T03:33:43.844Z,99.90
2018-07-24T03:36:12.332Z,99.90
2018-07-24T03:38:40.753Z,99.90
2018-07-24T03:41:09.236Z,99.90
2018-07-24T03:43:37.701Z,99.90
2018-07-24T03:46:06.425Z,99.90
2018-07-24T03:48:35.477Z,99.90
2018-07-24T03:51:03.949Z,99.90
2018-07-24T03:53:32.604Z,99.90
2018-07-24T03:56:01.158Z,99.90
2018-07-24T03:58:29.612Z,99.90
2018-07-24T04:00:58.057Z,99.90
2018-07-24T04:03:26.538Z,99.90
2018-07-24T04:05:55.117Z,99.90
2018-07-24T04:08:23.572Z,99.90
2018-07-24T04:10:52.033Z,99.90
2018-07-24T04:13:20.941Z,99.90
2018-07-24T04:15:49.349Z,99.90
2018-07-24T04:18:17.816Z,99.90
2018-07-24T04:20:46.880Z,99.90
2018-07-24T04:23:15.438Z,99.90
2018-07-24T04:25:43.872Z,99.90
2018-07-24T04:28:12.356Z,99.90
2018-07-24T04:30:40.823Z,99.90
2018-07-24T04:33:09.267Z,99.90
2018-07-24T04:35:37.844Z,99.90
2018-07-24T04:38:06.413Z,99.90
2018-07-24T04:40:34.850Z,99.90
2018-07-24T04:43:03.312Z,99.90
2018-07-24T04:45:32.037Z,99.90
2018-07-24T04:48:00.533Z,99.90
2018-07-24T04:50:28.957Z,99.90
2018-07-24T04:52:57.780Z,99.90
2018-07-24T04:55:26.216Z,99.90
2018-07-24T04:57:54.768Z,99.90
2018-07-24T05:02:52.637Z,99.90
2018-07-24T05:05:21.097Z,99.90
2018-07-24T05:07:49.548Z,99.90
2018-07-24T05:10:18.002Z,99.90
2018-07-24T05:12:46.569Z,99.90
2018-07-24T05:15:14.988Z,99.90
2018-07-24T05:17:43.451Z,99.90
2018-07-24T05:20:11.901Z,99.90
2018-07-24T05:22:40.365Z,99.90
2018-07-24T05:25:08.828Z,99.90
2018-07-24T05:27:37.421Z,99.90
2018-07-24T05:30:06.589Z,99.90
2018-07-24T05:32:35.045Z,99.90
2018-07-24T05:35:03.553Z,99.90
2018-07-24T05:37:32.036Z,99.90
2018-07-24T05:40:00.485Z,99.90
2018-07-24T05:42:28.938Z,99.90
2018-07-24T05:44:58.104Z,99.90
2018-07-24T05:47:26.598Z,99.90
2018-07-24T05:49:55.038Z,99.90
2018-07-24T05:52:23.499Z,99.90
2018-07-24T05:54:52.424Z,99.90
2018-07-24T05:57:20.872Z,99.90
2018-07-24T05:59:49.317Z,99.90
2018-07-24T06:02:17.828Z,99.90
2018-07-24T06:04:46.425Z,99.90
2018-07-24T06:07:14.898Z,99.90
2018-07-24T06:09:43.500Z,99.90
2018-07-24T06:12:11.952Z,99.90
2018-07-24T06:14:40.423Z,99.90
2018-07-24T06:17:08.877Z,99.90
2018-07-24T06:19:37.300Z,99.90
2018-07-24T06:22:05.828Z,99.90
2018-07-24T06:24:34.265Z,99.90
2018-07-24T06:27:02.968Z,99.90
2018-07-24T06:29:31.405Z,99.90
2018-07-24T06:31:59.909Z,99.90
2018-07-24T06:34:28.405Z,99.90
2018-07-24T06:36:56.912Z,99.90
2018-07-24T06:39:25.358Z,99.90
2018-07-24T06:41:53.866Z,99.90
2018-07-24T06:44:22.681Z,99.90
2018-07-24T06:46:51.101Z,99.90
2018-07-24T06:49:19.568Z,99.90
2018-07-24T06:51:48.124Z,99.90
2018-07-24T06:54:16.600Z,99.90
2018-07-24T06:56:45.061Z,99.90
2018-07-24T06:59:14.120Z,99.90
2018-07-24T07:01:42.596Z,99.90
2018-07-24T07:04:11.017Z,98.80
2018-07-24T07:06:39.468Z,99.90
2018-07-24T07:09:08.670Z,99.90
2018-07-24T07:11:37.172Z,99.90
2018-07-24T07:14:06.144Z,99.90
2018-07-24T07:16:35.063Z,99.90
2018-07-24T07:19:03.469Z,99.90
2018-07-24T07:21:32.716Z,99.90
2018-07-24T07:24:01.175Z,99.90
2018-07-24T07:26:29.613Z,99.90
2018-07-24T07:28:58.110Z,99.90
2018-07-24T07:31:26.584Z,99.90
2018-07-24T07:33:55.032Z,99.90
2018-07-24T07:36:23.473Z,99.90
2018-07-24T07:38:51.924Z,99.90
2018-07-24T07:41:20.377Z,99.90
2018-07-24T07:43:49.541Z,99.90
2018-07-24T07:46:17.937Z,99.90
2018-07-24T07:48:46.445Z,99.90
2018-07-24T07:51:14.875Z,99.90
2018-07-24T07:53:43.496Z,99.90
2018-07-24T07:56:12.034Z,99.90
2018-07-24T07:58:41.493Z,99.90
2018-07-24T08:01:09.948Z,99.90
2018-07-24T08:03:38.998Z,99.90
2018-07-24T08:06:07.525Z,99.90
2018-07-24T08:08:36.182Z,99.90
2018-07-24T08:11:04.672Z,99.90
2018-07-24T08:13:33.217Z,99.90
2018-07-24T08:16:01.638Z,99.90
2018-07-24T08:18:30.155Z,99.90
2018-07-24T08:20:58.632Z,99.90
2018-07-24T08:23:27.353Z,99.90
2018-07-24T08:25:56.404Z,99.90
2018-07-24T08:28:24.884Z,99.90
2018-07-24T08:30:53.336Z,99.00
2018-07-24T08:33:21.808Z,98.90
2018-07-24T08:35:50.272Z,99.40
2018-07-24T08:38:18.736Z,99.90
2018-07-24T08:40:47.187Z,99.90
2018-07-24T08:43:15.643Z,99.60
2018-07-24T08:45:44.069Z,99.90
2018-07-24T08:48:12.530Z,99.90
2018-07-24T08:50:41.030Z,99.90
2018-07-24T08:53:09.605Z,98.80
2018-07-24T08:55:38.221Z,98.00
2018-07-24T08:58:06.509Z,96.90
2018-07-24T09:00:34.979Z,97.20
2018-07-24T09:03:03.470Z,96.90
2018-07-24T09:05:31.908Z,95.10
2018-07-24T09:08:00.370Z,95.10
2018-07-24T09:10:28.829Z,93.30
2018-07-24T09:12:57.286Z,92.40
2018-07-24T09:15:25.793Z,93.50
2018-07-24T09:17:54.248Z,94.70
2018-07-24T09:20:22.719Z,94.60
2018-07-24T09:22:51.249Z,94.10
2018-07-24T09:25:19.760Z,94.20
2018-07-24T09:27:48.208Z,93.70
2018-07-24T09:30:16.648Z,91.60
2018-07-24T09:32:45.117Z,92.00
2018-07-24T09:37:41.684Z,93.50
2018-07-24T09:40:10.143Z,92.50
2018-07-24T09:42:38.655Z,92.40
2018-07-24T09:45:07.684Z,92.30
2018-07-24T09:47:36.131Z,90.30
2018-07-24T09:50:04.965Z,87.70
2018-07-24T09:52:33.410Z,90.00
2018-07-24T09:55:01.846Z,90.30
2018-07-24T09:57:30.325Z,87.90
2018-07-24T09:59:58.797Z,89.70
2018-07-24T10:02:27.233Z,90.00
2018-07-24T10:04:55.776Z,88.60
2018-07-24T10:07:24.237Z,88.30
2018-07-24T10:09:52.699Z,88.70
2018-07-24T10:12:21.761Z,88.50
2018-07-24T10:14:50.214Z,88.70
2018-07-24T10:17:18.689Z,87.60
2018-07-24T10:19:47.145Z,86.90
2018-07-24T10:22:15.612Z,86.40
2018-07-24T10:24:44.101Z,87.20
2018-07-24T10:27:12.536Z,88.90
2018-07-24T10:29:41.708Z,87.70
2018-07-24T10:32:10.157Z,84.90
2018-07-24T10:34:38.646Z,86.30
2018-07-24T10:39:35.545Z,84.40
2018-07-24T10:42:04.129Z,82.70
2018-07-24T10:44:32.675Z,85.70
2018-07-24T10:47:01.141Z,85.40
2018-07-24T10:49:29.582Z,84.80
2018-07-24T10:51:58.038Z,85.10
2018-07-24T10:54:26.574Z,85.30
2018-07-24T10:56:55.013Z,86.00
2018-07-24T10:59:23.496Z,84.40
2018-07-24T11:01:51.932Z,85.40
2018-07-24T11:04:20.402Z,81.80
2018-07-24T11:09:17.008Z,80.10
2018-07-24T11:11:45.449Z,83.20
2018-07-24T11:14:13.886Z,83.60
2018-07-24T11:16:42.345Z,83.60
2018-07-24T11:19:10.782Z,83.60
2018-07-24T11:21:40.024Z,81.40
2018-07-24T11:24:08.536Z,82.50
2018-07-24T11:26:36.990Z,81.60
2018-07-24T11:29:05.469Z,78.60
2018-07-24T11:31:33.881Z,79.30
2018-07-24T11:34:02.332Z,78.20
2018-07-24T11:36:30.761Z,80.20
2018-07-24T11:38:59.209Z,81.50
2018-07-24T11:41:27.653Z,83.20
2018-07-24T11:43:56.179Z,83.70
2018-07-24T11:46:24.734Z,82.40
2018-07-24T11:48:53.225Z,80.90
2018-07-24T11:51:21.690Z,78.30
2018-07-24T11:53:50.123Z,75.60
2018-07-24T11:56:18.678Z,78.20
2018-07-24T11:58:47.438Z,78.90
2018-07-24T12:01:16.684Z,77.30
2018-07-24T12:03:45.575Z,76.70
2018-07-24T12:06:14.265Z,78.10
2018-07-24T12:08:43.148Z,76.10
2018-07-24T12:11:11.798Z,74.60
2018-07-24T12:13:40.573Z,72.00
2018-07-24T12:16:10.074Z,70.30
2018-07-24T12:18:38.649Z,73.10
2018-07-24T12:21:08.022Z,73.90
2018-07-24T12:23:36.468Z,73.70
2018-07-24T12:26:05.639Z,75.60
2018-07-24T12:28:34.073Z,75.00
2018-07-24T12:31:02.573Z,74.40
2018-07-24T12:33:31.085Z,73.80
2018-07-24T12:35:59.672Z,73.60
2018-07-24T12:38:28.113Z,74.50
2018-07-24T12:40:56.578Z,74.80
2018-07-24T12:43:25.045Z,72.70
2018-07-24T12:45:53.527Z,74.40
2018-07-24T12:48:22.660Z,74.80
2018-07-24T12:50:51.216Z,73.30
2018-07-24T12:53:19.652Z,73.60
2018-07-24T12:58:17.553Z,72.90
2018-07-24T13:00:46.013Z,72.40
2018-07-24T13:05:42.667Z,71.70
2018-07-24T13:08:11.180Z,72.40
2018-07-24T13:10:39.649Z,72.20
2018-07-24T13:13:08.209Z,72.60
2018-07-24T13:15:36.702Z,73.20
2018-07-24T13:18:05.462Z,72.70
2018-07-24T13:20:33.964Z,74.20
2018-07-24T13:25:30.650Z,74.80
2018-07-24T13:27:59.892Z,73.70
2018-07-24T13:30:28.368Z,71.90
2018-07-24T13:32:56.839Z,71.30
2018-07-24T13:35:25.302Z,73.60
2018-07-24T13:37:53.752Z,72.90
2018-07-24T13:40:22.242Z,71.40
2018-07-24T13:42:50.678Z,69.90
2018-07-24T13:45:19.148Z,69.00
2018-07-24T13:47:47.612Z,66.60
2018-07-24T13:50:16.109Z,68.70
2018-07-24T13:52:44.540Z,69.30
2018-07-24T13:55:13.073Z,71.40
2018-07-24T13:57:41.552Z,71.20
2018-07-24T14:00:10.028Z,70.50
2018-07-24T14:02:38.500Z,71.20
2018-07-24T14:05:06.998Z,72.50
2018-07-24T14:07:35.457Z,69.90
2018-07-24T14:10:04.501Z,70.10
2018-07-24T14:12:33.020Z,71.00
2018-07-24T14:15:01.506Z,70.60
2018-07-24T14:17:29.998Z,71.20
2018-07-24T14:19:58.488Z,70.70
2018-07-24T14:22:26.933Z,71.90
2018-07-24T14:24:55.917Z,70.40
2018-07-24T14:27:24.852Z,71.70
2018-07-24T14:32:21.553Z,72.20
2018-07-24T14:34:50.013Z,71.80
2018-07-24T14:37:18.493Z,69.80
2018-07-24T14:39:46.988Z,70.90
2018-07-24T14:42:15.479Z,71.60
2018-07-24T14:44:44.089Z,71.90
2018-07-24T14:47:12.644Z,71.70
2018-07-24T14:49:41.176Z,70.90
2018-07-24T14:52:09.673Z,71.10
2018-07-24T14:54:38.312Z,71.20
2018-07-24T14:57:07.388Z,71.20
2018-07-24T14:59:36.825Z,71.10
2018-07-24T15:02:05.496Z,70.40
2018-07-24T15:04:34.084Z,70.20
2018-07-24T15:07:02.550Z,69.60
2018-07-24T15:09:31.738Z,68.80
2018-07-24T15:12:00.213Z,69.60
2018-07-24T15:14:28.724Z,69.60
2018-07-24T15:16:57.197Z,67.70
2018-07-24T15:19:25.678Z,69.20
2018-07-24T15:21:54.140Z,69.50
2018-07-24T15:24:22.716Z,69.30
2018-07-24T15:26:51.217Z,70.00
2018-07-24T15:29:19.759Z,69.90
2018-07-24T15:31:48.468Z,69.20
2018-07-24T15:34:17.104Z,68.60
2018-07-24T15:36:45.504Z,67.80
2018-07-24T15:39:14.541Z,67.10
2018-07-24T15:41:43.952Z,67.30
2018-07-24T15:44:12.400Z,66.70
2018-07-24T15:46:40.939Z,68.10
2018-07-24T15:49:09.434Z,69.00
2018-07-24T15:51:38.384Z,69.30
2018-07-24T15:54:06.823Z,69.10
2018-07-24T15:56:35.265Z,69.50
2018-07-24T15:59:03.728Z,69.60
2018-07-24T16:01:32.156Z,68.30
2018-07-24T16:04:00.600Z,69.10
2018-07-24T16:06:29.140Z,69.90
2018-07-24T16:08:57.591Z,69.90
2018-07-24T16:11:26.098Z,70.50
2018-07-24T16:13:54.533Z,70.40
2018-07-24T16:16:22.992Z,70.40
2018-07-24T16:18:51.433Z,71.10
2018-07-24T16:21:19.938Z,70.70
2018-07-24T16:23:49.025Z,70.80
2018-07-24T16:26:17.484Z,71.20
2018-07-24T16:28:45.900Z,70.70
2018-07-24T16:31:14.397Z,71.10
2018-07-24T16:33:42.816Z,71.40
2018-07-24T16:36:11.284Z,71.40
2018-07-24T16:38:39.788Z,70.90
2018-07-24T16:41:08.296Z,71.20
2018-07-24T16:43:36.769Z,70.60
2018-07-24T16:48:33.394Z,70.50
2018-07-24T16:51:01.845Z,69.60
2018-07-24T16:53:30.281Z,70.30
2018-07-24T16:55:58.780Z,70.10
2018-07-24T16:58:27.340Z,70.50
2018-07-24T17:03:24.085Z,70.30
2018-07-24T17:05:52.585Z,71.00
2018-07-24T17:08:21.075Z,70.70
2018-07-24T17:10:49.738Z,70.60
2018-07-24T17:13:18.258Z,71.00
2018-07-24T17:15:47.234Z,70.90
2018-07-24T17:18:16.192Z,70.10
2018-07-24T17:20:44.686Z,70.30
2018-07-24T17:23:13.137Z,70.20
2018-07-24T17:25:41.612Z,70.30
2018-07-24T17:28:10.108Z,70.20
2018-07-24T17:30:38.572Z,70.10
2018-07-24T17:33:07.121Z,70.50
2018-07-24T17:35:35.586Z,70.60
2018-07-24T17:38:04.097Z,70.40
2018-07-24T17:40:32.608Z,70.50
2018-07-24T17:43:01.034Z,70.40
2018-07-24T17:45:30.492Z,70.50
2018-07-24T17:47:58.938Z,70.20
2018-07-24T17:50:27.480Z,70.70
2018-07-24T17:55:24.038Z,70.30
2018-07-24T17:57:52.484Z,70.60
2018-07-24T18:00:20.955Z,70.20
2018-07-24T18:02:49.388Z,69.70
2018-07-24T18:05:17.893Z,70.10
2018-07-24T18:07:46.326Z,70.50
2018-07-24T18:10:15.163Z,70.80
2018-07-24T18:12:43.649Z,70.70
2018-07-24T18:15:12.096Z,70.90
2018-07-24T18:17:40.756Z,71.20
2018-07-24T18:20:09.405Z,71.10
2018-07-24T18:22:37.904Z,71.30
2018-07-24T18:25:06.424Z,71.50
2018-07-24T18:27:34.868Z,71.90
2018-07-24T18:30:03.381Z,71.70
2018-07-24T18:32:32.112Z,72.20
2018-07-24T18:35:00.551Z,72.10
2018-07-24T18:37:29.064Z,72.60
2018-07-24T18:39:57.537Z,72.40
2018-07-24T18:42:26.032Z,73.00
2018-07-24T18:44:54.990Z,73.30
2018-07-24T18:47:23.457Z,73.40
2018-07-24T18:49:51.905Z,73.40
2018-07-24T18:52:21.089Z,73.50
2018-07-24T18:54:49.566Z,74.20
2018-07-24T18:57:18.049Z,74.10
2018-07-24T18:59:52.336Z,74.50
2018-07-24T19:02:20.913Z,75.60
2018-07-24T19:04:49.456Z,74.70
2018-07-24T19:07:18.713Z,75.30
2018-07-24T19:09:47.145Z,81.00
2018-07-24T19:12:15.668Z,85.80
2018-07-24T19:14:44.141Z,87.40
2018-07-24T19:17:12.761Z,84.30
2018-07-24T19:19:41.172Z,86.20
2018-07-24T19:22:09.622Z,86.70
2018-07-24T19:24:38.092Z,90.00
2018-07-24T19:27:06.552Z,90.00
2018-07-24T19:29:35.020Z,87.80
2018-07-24T19:32:03.536Z,89.80
2018-07-24T19:34:31.964Z,90.80
2018-07-24T19:37:00.460Z,94.30
2018-07-24T19:39:28.941Z,95.20
2018-07-24T19:41:57.416Z,92.60
2018-07-24T19:44:25.916Z,93.00
2018-07-24T19:46:54.372Z,93.60
2018-07-24T19:49:22.850Z,94.00
2018-07-24T19:51:51.396Z,94.20
2018-07-24T19:54:19.855Z,95.40
2018-07-24T19:59:17.359Z,97.70
2018-07-24T20:01:45.832Z,94.00
2018-07-24T20:04:14.344Z,93.60
2018-07-24T20:06:42.797Z,94.50
2018-07-24T20:09:12.549Z,97.30
2018-07-24T20:11:40.997Z,94.20
2018-07-24T20:14:09.532Z,98.40
2018-07-24T20:16:38.000Z,95.70
2018-07-24T20:19:06.588Z,96.30
2018-07-24T20:21:35.097Z,96.40
2018-07-24T20:24:03.540Z,96.40
2018-07-24T20:26:33.580Z,97.50
2018-07-24T20:29:02.421Z,98.10
2018-07-24T20:31:30.872Z,97.90
2018-07-24T20:33:59.325Z,97.50
2018-07-24T20:36:27.756Z,97.60
2018-07-24T20:38:56.262Z,96.30
2018-07-24T20:41:25.032Z,96.50
2018-07-24T20:46:22.556Z,99.40
2018-07-24T20:48:51.599Z,97.20
2018-07-24T20:51:20.467Z,98.70
2018-07-24T20:53:49.238Z,99.90
2018-07-24T20:56:17.928Z,99.90
2018-07-24T20:58:46.470Z,99.90
2018-07-24T21:01:16.422Z,99.90
2018-07-24T21:03:45.097Z,99.90
2018-07-24T21:06:13.610Z,99.50
2018-07-24T21:08:42.024Z,99.40
2018-07-24T21:11:10.528Z,97.70
2018-07-24T21:13:39.777Z,97.60
2018-07-24T21:16:08.257Z,97.00
2018-07-24T21:18:36.736Z,97.10
2018-07-24T21:21:05.462Z,97.50
2018-07-24T21:23:34.045Z,97.30
2018-07-24T21:26:02.736Z,97.60
2018-07-24T21:28:31.485Z,96.90
2018-07-24T21:31:00.031Z,96.30
2018-07-24T21:33:28.501Z,96.40
2018-07-24T21:35:56.932Z,96.70
2018-07-24T21:38:25.420Z,99.40
2018-07-24T21:40:53.861Z,99.10
2018-07-24T21:43:22.439Z,98.80
2018-07-24T21:45:50.964Z,98.20
2018-07-24T21:48:19.396Z,97.40
2018-07-24T21:50:48.052Z,96.70
2018-07-24T21:53:16.657Z,96.40
2018-07-24T21:55:46.483Z,96.70
2018-07-24T21:58:15.308Z,97.00
2018-07-24T22:03:12.725Z,97.90
2018-07-24T22:05:41.555Z,98.60
2018-07-24T22:08:10.907Z,99.50
2018-07-24T22:10:39.750Z,99.90
2018-07-24T22:13:08.527Z,99.90
2018-07-24T22:18:05.762Z,99.90
2018-07-24T22:20:34.549Z,99.90
2018-07-24T22:23:03.255Z,99.90
2018-07-24T22:25:32.082Z,99.90
2018-07-24T22:28:01.262Z,99.90
2018-07-24T22:30:29.935Z,99.90
2018-07-24T22:32:58.615Z,99.90
2018-07-24T22:37:55.761Z,99.90
2018-07-24T22:40:24.308Z,99.90
2018-07-24T22:42:52.996Z,99.90
2018-07-24T22:45:21.832Z,99.90
2018-07-24T22:47:50.695Z,99.90
2018-07-24T22:50:19.543Z,99.90
2018-07-24T22:52:48.369Z,99.90
2018-07-24T22:55:17.194Z,99.90
2018-07-24T22:57:45.936Z,99.90
2018-07-24T23:00:14.608Z,99.90
2018-07-24T23:02:43.414Z,99.90
2018-07-24T23:05:12.329Z,99.90
2018-07-24T23:07:41.138Z,99.90
2018-07-24T23:10:09.853Z,99.90
2018-07-24T23:12:38.791Z,99.90
2018-07-24T23:17:36.390Z,99.90
2018-07-24T23:20:04.844Z,99.90
2018-07-24T23:22:33.669Z,99.90
2018-07-24T23:25:02.436Z,99.90
2018-07-24T23:27:31.103Z,99.90
2018-07-24T23:29:59.854Z,99.90
2018-07-24T23:32:28.663Z,99.90
2018-07-24T23:34:57.556Z,99.90
2018-07-24T23:37:27.425Z,99.90
2018-07-24T23:39:57.043Z,99.90
2018-07-24T23:42:25.842Z,99.90
2018-07-24T23:44:55.233Z,99.90
2018-07-24T23:47:24.066Z,99.90
2018-07-24T23:49:52.863Z,99.90
2018-07-24T23:52:21.736Z,99.90
2018-07-24T23:54:50.480Z,99.90
2018-07-24T23:57:19.032Z,99.90
2018-07-24T23:59:47.570Z,99.90
